Time;durP1;ratioP1;P1;durP2;ratioP2;P2;SDS_P1;SDS_P2;PMS_P1;PMS_P2;Temp;Humidity;BMP_temperature;BMP_pressure;BME280_temperature;BME280_humidity;BME280_pressure;Samples;Min_cycle;Max_cycle;Signal;HPM_P1;HPM_P2
2023/10/09 00:01:14;;;;;;;15.20;6.03;;;14.40;99.90;;;;;;5072060;28;20115;-60
2023/10/09 00:03:53;;;;;;;18.13;6.20;;;14.40;99.90;;;;;;5061672;28;20049;-60
2023/10/09 00:06:37;;;;;;;12.30;6.18;;;14.40;99.90;;;;;;5050853;28;20044;-61
2023/10/09 00:11:44;;;;;;;12.18;5.78;;;14.40;99.90;;;;;;5084439;28;20037;-61
2023/10/09 00:14:11;;;;;;;14.30;6.57;;;14.40;99.90;;;;;;5050976;28;20122;-60
2023/10/09 00:16:43;;;;;;;14.65;6.28;;;14.40;99.90;;;;;;5050492;28;20036;-60
2023/10/09 00:21:41;;;;;;;11.35;5.78;;;14.40;99.90;;;;;;5083895;28;20123;-61
2023/10/09 00:24:13;;;;;;;11.90;6.40;;;14.40;99.90;;;;;;5051746;28;20041;-60
2023/10/09 00:26:48;;;;;;;12.65;6.55;;;14.40;99.90;;;;;;5051000;28;20044;-60
2023/10/09 00:29:36;;;;;;;13.32;6.32;;;14.40;99.90;;;;;;5049923;28;20090;-60
2023/10/09 00:32:13;;;;;;;12.32;7.55;;;14.40;99.90;;;;;;5067470;28;20044;-60
2023/10/09 00:34:39;;;;;;;18.45;8.40;;;14.40;99.90;;;;;;5050675;28;20049;-60
2023/10/09 00:37:22;;;;;;;18.77;9.38;;;14.50;99.90;;;;;;5050028;28;20132;-60
2023/10/09 00:39:55;;;;;;;16.30;7.93;;;14.40;99.90;;;;;;5050580;28;20114;-60
2023/10/09 00:42:29;;;;;;;15.25;8.75;;;14.40;99.90;;;;;;5051368;28;20040;-60
2023/10/09 00:44:56;;;;;;;17.80;8.85;;;14.50;99.90;;;;;;5050742;28;20036;-60
2023/10/09 00:47:26;;;;;;;15.48;8.65;;;14.40;99.90;;;;;;5051892;28;20045;-60
2023/10/09 00:50:08;;;;;;;18.10;8.40;;;14.40;99.90;;;;;;5050721;28;20043;-60
2023/10/09 00:52:52;;;;;;;13.63;8.85;;;14.40;99.90;;;;;;5050347;28;20088;-60
2023/10/09 00:56:05;;;;;;;13.77;7.78;;;14.50;99.90;;;;;;5051779;28;20390;-60
2023/10/09 00:58:12;;;;;;;20.67;10.13;;;14.40;99.90;;;;;;5039109;28;20127;-60
2023/10/09 01:03:22;;;;;;;17.23;10.20;;;14.50;99.90;;;;;;5050550;28;20501;-60
2023/10/09 01:06:33;;;;;;;14.45;8.32;;;14.40;99.90;;;;;;5049367;28;20060;-60
2023/10/09 01:11:23;;;;;;;20.70;10.35;;;14.50;99.90;;;;;;5049397;28;20041;-60
2023/10/09 01:16:23;;;;;;;22.02;11.07;;;14.50;99.90;;;;;;5050446;28;20402;-60
2023/10/09 01:18:56;;;;;;;18.13;10.55;;;14.40;99.90;;;;;;5049527;28;20120;-61
2023/10/09 01:21:26;;;;;;;19.17;11.00;;;14.40;99.90;;;;;;5050547;28;20033;-60
2023/10/09 01:26:39;;;;;;;26.42;13.40;;;14.40;99.90;;;;;;5069331;28;20531;-60
2023/10/09 01:29:14;;;;;;;21.02;12.07;;;14.30;99.90;;;;;;5066222;28;20087;-60
2023/10/09 01:31:56;;;;;;;25.40;13.75;;;14.40;99.90;;;;;;5049011;28;20091;-60
2023/10/09 01:34:41;;;;;;;26.35;15.98;;;14.40;99.90;;;;;;5050046;28;20088;-60
2023/10/09 01:37:23;;;;;;;24.55;14.18;;;14.40;99.90;;;;;;5050467;28;20438;-60
2023/10/09 01:39:51;;;;;;;28.92;17.67;;;14.40;99.90;;;;;;5051444;28;20056;-60
2023/10/09 01:44:58;;;;;;;29.70;16.85;;;14.50;99.90;;;;;;5070233;28;20048;-60
2023/10/09 01:47:25;;;;;;;31.42;18.20;;;14.50;99.90;;;;;;5069074;28;20041;-60
2023/10/09 01:49:53;;;;;;;33.55;18.73;;;14.50;99.90;;;;;;5069856;28;20068;-60
2023/10/09 01:52:20;;;;;;;29.40;17.60;;;14.50;99.90;;;;;;5053319;28;20045;-60
2023/10/09 01:54:48;;;;;;;37.97;19.95;;;14.50;99.90;;;;;;5070169;28;20530;-60
2023/10/09 01:57:16;;;;;;;27.13;18.25;;;14.50;99.90;;;;;;5073506;28;20124;-60
2023/10/09 01:59:43;;;;;;;29.92;18.08;;;14.50;99.90;;;;;;5062837;28;20486;-60
2023/10/09 02:07:41;;;;;;;32.80;20.05;;;14.50;99.90;;;;;;5053724;28;20076;-60
2023/10/09 02:12:59;;;;;;;37.00;21.10;;;14.60;99.90;;;;;;5055823;28;20402;-60
2023/10/09 02:18:18;;;;;;;36.38;22.65;;;14.50;99.90;;;;;;5053109;28;20049;-60
2023/10/09 02:20:45;;;;;;;37.55;21.80;;;14.60;99.90;;;;;;5052856;28;20124;-60
2023/10/09 02:23:20;;;;;;;42.60;23.60;;;14.60;99.90;;;;;;5060125;28;20151;-60
2023/10/09 02:25:47;;;;;;;35.08;22.45;;;14.60;99.90;;;;;;5052791;28;20083;-60
2023/10/09 02:28:17;;;;;;;42.47;23.55;;;14.60;99.90;;;;;;5042609;28;20119;-60
2023/10/09 02:30:49;;;;;;;38.05;23.33;;;14.50;99.90;;;;;;5055703;28;20040;-60
2023/10/09 02:33:27;;;;;;;32.55;21.88;;;14.70;99.90;;;;;;5072877;28;20075;-60
2023/10/09 02:35:54;;;;;;;35.10;23.67;;;14.60;99.90;;;;;;5068258;28;20091;-60
2023/10/09 02:38:23;;;;;;;40.83;24.05;;;14.50;99.90;;;;;;5064904;28;20493;-60
2023/10/09 02:43:47;;;;;;;42.75;23.63;;;14.60;99.90;;;;;;5051665;28;20131;-60
2023/10/09 02:46:20;;;;;;;46.55;23.25;;;14.60;99.90;;;;;;5053801;28;20083;-60
2023/10/09 02:48:53;;;;;;;45.22;25.48;;;14.60;99.90;;;;;;5052595;28;20048;-60
2023/10/09 02:54:07;;;;;;;39.65;26.20;;;14.80;99.90;;;;;;5086029;28;20098;-60
2023/10/09 02:56:43;;;;;;;43.55;27.02;;;14.60;99.90;;;;;;5065429;28;20120;-60
2023/10/09 02:59:09;;;;;;;45.08;26.67;;;14.70;99.90;;;;;;5082786;28;20430;-60
2023/10/09 03:01:37;;;;;;;44.40;26.85;;;14.80;99.90;;;;;;5032206;28;20045;-60
2023/10/09 03:04:05;;;;;;;45.40;27.58;;;14.70;99.90;;;;;;5031695;28;20556;-60
2023/10/09 03:06:34;;;;;;;42.30;25.70;;;14.90;99.90;;;;;;5031994;28;20046;-60
2023/10/09 03:09:01;;;;;;;38.55;25.65;;;14.90;99.90;;;;;;5033995;28;20042;-60
2023/10/09 03:11:26;;;;;;;42.63;27.33;;;14.90;99.90;;;;;;5031539;28;20052;-60
2023/10/09 03:13:53;;;;;;;40.08;25.83;;;15.00;99.90;;;;;;5032198;28;20037;-60
2023/10/09 03:16:19;;;;;;;39.85;25.52;;;15.00;99.90;;;;;;5032017;28;20057;-60
2023/10/09 03:18:52;;;;;;;38.13;25.33;;;14.90;99.90;;;;;;5032533;28;20119;-60
2023/10/09 03:21:18;;;;;;;45.17;27.30;;;14.90;99.90;;;;;;5068462;28;20528;-60
2023/10/09 03:23:51;;;;;;;41.78;24.75;;;15.10;99.90;;;;;;5048515;28;20068;-60
2023/10/09 03:26:20;;;;;;;39.38;24.52;;;15.00;99.90;;;;;;5031228;28;20054;-61
2023/10/09 03:28:48;;;;;;;38.28;25.33;;;15.00;99.90;;;;;;5031667;28;20041;-60
2023/10/09 03:31:13;;;;;;;40.35;24.60;;;15.10;99.90;;;;;;5078604;28;20052;-60
2023/10/09 03:33:40;;;;;;;39.25;25.60;;;15.00;99.90;;;;;;5052877;28;20029;-60
2023/10/09 03:36:09;;;;;;;39.55;24.08;;;15.10;99.90;;;;;;5053311;28;20043;-60
2023/10/09 03:38:38;;;;;;;34.25;21.48;;;15.20;99.90;;;;;;5061608;28;20115;-60
2023/10/09 03:41:09;;;;;;;43.85;23.02;;;15.20;99.90;;;;;;5032072;28;20556;-60
2023/10/09 03:43:38;;;;;;;33.17;22.17;;;15.20;99.90;;;;;;5038603;28;20561;-60
2023/10/09 03:46:12;;;;;;;34.78;21.65;;;15.10;99.90;;;;;;5034111;28;20045;-60
2023/10/09 03:48:38;;;;;;;36.42;22.83;;;15.30;99.90;;;;;;5051653;28;20084;-60
2023/10/09 03:51:12;;;;;;;33.90;21.35;;;15.30;99.90;;;;;;5055409;28;20084;-60
2023/10/09 03:53:41;;;;;;;29.52;19.48;;;15.20;99.90;;;;;;5050720;28;20045;-60
2023/10/09 03:56:15;;;;;;;29.20;20.35;;;15.30;99.90;;;;;;5068109;28;20490;-60
2023/10/09 03:58:45;;;;;;;31.52;18.73;;;15.40;99.90;;;;;;5064532;28;20053;-60
2023/10/09 04:03:47;;;;;;;25.83;17.05;;;15.30;99.90;;;;;;5031372;28;20843;-61
2023/10/09 04:06:14;;;;;;;26.02;17.08;;;15.40;99.90;;;;;;5030983;28;20049;-60
2023/10/09 04:08:47;;;;;;;23.17;14.95;;;15.40;99.90;;;;;;5080817;28;20120;-60
2023/10/09 04:11:16;;;;;;;23.40;14.45;;;15.40;99.90;;;;;;5052345;28;20535;-60
2023/10/09 04:13:46;;;;;;;18.77;12.20;;;15.50;99.90;;;;;;5069844;28;20048;-60
2023/10/09 04:18:59;;;;;;;26.70;11.95;;;15.70;99.90;;;;;;5072325;28;20366;-60
2023/10/09 04:24:09;;;;;;;17.60;8.93;;;15.80;99.90;;;;;;5071451;28;20087;-70
2023/10/09 04:26:36;;;;;;;19.50;9.10;;;15.70;99.90;;;;;;5072115;28;20043;-70
2023/10/09 04:29:03;;;;;;;15.13;9.20;;;15.70;99.90;;;;;;5054265;28;20424;-70
2023/10/09 04:31:34;;;;;;;15.32;7.97;;;15.80;99.90;;;;;;5070896;28;20071;-71
2023/10/09 04:36:49;;;;;;;16.45;9.02;;;15.90;99.90;;;;;;5069782;28;20051;-71
2023/10/09 04:39:16;;;;;;;17.80;8.18;;;16.00;99.90;;;;;;5072227;28;20044;-71
2023/10/09 04:44:59;;;;;;;20.05;8.65;;;16.00;99.90;;;;;;5071534;28;20036;-71
2023/10/09 04:55:18;;;;;;;19.10;8.88;;;16.00;99.90;;;;;;5071165;28;20124;-72
2023/10/09 05:02:57;;;;;;;17.83;9.07;;;16.00;99.90;;;;;;5070102;28;20044;-60
2023/10/09 05:16:28;;;;;;;14.18;7.70;;;16.00;99.90;;;;;;5051011;28;20500;-60
2023/10/09 05:18:56;;;;;;;17.05;8.05;;;16.00;99.90;;;;;;5051201;28;20056;-61
2023/10/09 05:37:26;;;;;;;18.98;8.38;;;16.00;99.90;;;;;;5074136;28;20041;-60
2023/10/09 05:47:56;;;;;;;14.90;8.45;;;16.00;99.90;;;;;;5074042;28;20056;-61
2023/10/09 06:04:49;;;;;;;18.08;8.75;;;16.10;99.90;;;;;;5072879;28;20059;-60
2023/10/09 06:06:33;;;;;;;18.95;8.10;;;16.00;99.90;;;;;;5057506;28;20049;-60
2023/10/09 06:11:42;;;;;;;15.98;8.70;;;16.10;99.90;;;;;;5087328;28;20048;-60
2023/10/09 06:16:59;;;;;;;18.13;8.63;;;16.10;99.90;;;;;;5086682;28;20052;-60
2023/10/09 06:19:26;;;;;;;19.17;7.97;;;16.00;99.90;;;;;;5054506;28;20041;-61
2023/10/09 06:24:54;;;;;;;18.77;8.30;;;16.10;99.90;;;;;;5053272;28;20053;-60
2023/10/09 06:27:26;;;;;;;19.35;7.40;;;16.00;99.90;;;;;;5056879;28;20858;-61
2023/10/09 06:30:13;;;;;;;14.77;7.47;;;16.00;99.90;;;;;;5073265;28;20044;-60
2023/10/09 06:32:49;;;;;;;15.77;7.68;;;16.10;99.90;;;;;;5056019;28;20124;-61
2023/10/09 06:35:30;;;;;;;19.02;8.38;;;16.10;99.90;;;;;;5052831;28;20033;-61
2023/10/09 06:43:36;;;;;;;19.63;8.50;;;16.00;99.90;;;;;;5052152;28;20051;-61
2023/10/09 06:46:36;;;;;;;18.40;7.85;;;16.00;99.90;;;;;;5052344;28;20045;-61
2023/10/09 06:48:55;;;;;;;16.23;7.82;;;15.90;99.90;;;;;;5052029;28;20049;-61
2023/10/09 07:01:45;;;;;;;17.55;8.45;;;15.90;99.90;;;;;;5047955;28;20072;-61
2023/10/09 07:04:45;;;;;;;20.63;7.55;;;16.00;99.90;;;;;;5064064;28;20048;-61
2023/10/09 07:07:12;;;;;;;18.90;8.33;;;15.90;99.90;;;;;;5059707;28;20095;-61
2023/10/09 07:10:28;;;;;;;19.92;8.68;;;15.80;99.90;;;;;;5049503;28;20037;-60
2023/10/09 07:12:32;;;;;;;16.27;7.05;;;15.90;99.90;;;;;;5029466;28;20041;-58
2023/10/09 07:16:23;;;;;;;15.70;8.15;;;16.00;99.90;;;;;;5060485;28;20044;-58
2023/10/09 07:17:52;;;;;;;18.55;8.00;;;16.00;99.90;;;;;;5049138;28;20045;-60
2023/10/09 07:20:36;;;;;;;19.27;8.57;;;15.90;99.90;;;;;;5050829;28;20397;-60
2023/10/09 07:23:15;;;;;;;18.75;8.50;;;16.00;99.90;;;;;;5055926;28;20049;-60
2023/10/09 07:25:54;;;;;;;19.98;7.78;;;15.90;99.90;;;;;;5055340;28;20059;-60
2023/10/09 07:28:36;;;;;;;19.30;7.82;;;16.00;99.90;;;;;;5037705;28;20044;-60
2023/10/09 07:31:03;;;;;;;15.52;8.18;;;16.00;99.90;;;;;;5037313;28;20107;-60
2023/10/09 07:34:30;;;;;;;23.38;9.55;;;16.00;99.90;;;;;;5068553;28;20393;-61
2023/10/09 07:36:29;;;;;;;15.70;8.15;;;15.90;99.90;;;;;;5058391;28;20123;-60
2023/10/09 07:38:56;;;;;;;18.80;8.55;;;16.00;99.90;;;;;;5069053;28;20059;-60
2023/10/09 07:43:47;;;;;;;17.48;9.15;;;16.00;99.90;;;;;;5077021;28;20048;-61
2023/10/09 07:46:30;;;;;;;18.63;8.55;;;16.10;99.90;;;;;;5049243;28;20049;-58
2023/10/09 07:49:08;;;;;;;21.23;9.40;;;16.00;99.90;;;;;;5049621;28;20041;-58
2023/10/09 07:51:46;;;;;;;19.92;8.30;;;16.10;99.90;;;;;;5048409;28;20107;-58
2023/10/09 07:54:14;;;;;;;16.77;8.57;;;16.00;99.90;;;;;;5049426;28;20045;-58
2023/10/09 07:56:45;;;;;;;21.13;8.23;;;16.00;99.90;;;;;;5051517;28;20036;-58
2023/10/09 07:59:18;;;;;;;19.20;9.45;;;16.10;99.90;;;;;;5061852;28;20060;-58
2023/10/09 08:01:53;;;;;;;19.38;8.60;;;16.10;99.90;;;;;;5049362;28;20383;-60
2023/10/09 08:04:37;;;;;;;23.27;7.82;;;16.10;99.90;;;;;;5063377;28;20043;-60
2023/10/09 08:07:06;;;;;;;18.50;8.65;;;16.10;99.90;;;;;;5048512;28;20474;-61
2023/10/09 08:10:43;;;;;;;20.58;8.13;;;16.10;99.90;;;;;;5061153;28;20103;-61
2023/10/09 08:17:58;;;;;;;18.25;8.45;;;16.00;99.90;;;;;;5049568;28;20045;-61
2023/10/09 08:20:26;;;;;;;25.40;9.73;;;16.10;99.90;;;;;;5047857;28;20055;-62
2023/10/09 08:22:55;;;;;;;22.60;8.50;;;16.20;99.90;;;;;;5031993;28;20049;-62
2023/10/09 08:25:56;;;;;;;16.70;8.10;;;16.00;99.90;;;;;;5048062;28;20061;-61
2023/10/09 08:28:39;;;;;;;18.83;8.50;;;16.00;99.90;;;;;;5049142;28;20080;-61
2023/10/09 08:34:26;;;;;;;17.85;8.93;;;16.00;99.90;;;;;;5029463;28;20509;-62
2023/10/09 08:36:54;;;;;;;23.17;8.95;;;16.00;99.90;;;;;;5010194;28;20533;-62
2023/10/09 08:39:27;;;;;;;19.50;9.55;;;16.20;99.90;;;;;;5018147;28;20516;-61
2023/10/09 08:42:01;;;;;;;23.50;8.25;;;16.00;99.90;;;;;;5054892;28;20076;-62
2023/10/09 08:44:29;;;;;;;15.27;8.15;;;16.20;99.90;;;;;;5048474;28;20037;-61
2023/10/09 08:46:57;;;;;;;18.70;8.90;;;16.10;99.90;;;;;;5049837;28;20041;-62
2023/10/09 08:49:23;;;;;;;15.65;7.75;;;16.20;99.90;;;;;;5030230;28;20041;-62
2023/10/09 08:51:52;;;;;;;21.08;8.00;;;16.30;99.90;;;;;;5064809;28;20068;-61
2023/10/09 08:54:18;;;;;;;17.75;8.70;;;16.20;99.90;;;;;;5048283;28;20663;-61
2023/10/09 08:56:51;;;;;;;20.08;8.18;;;16.20;99.90;;;;;;5032746;28;20478;-61
2023/10/09 08:59:20;;;;;;;20.65;9.02;;;16.30;99.90;;;;;;5050488;28;20040;-61
2023/10/09 09:01:52;;;;;;;18.13;7.88;;;16.30;99.90;;;;;;5049498;28;20044;-61
2023/10/09 09:04:40;;;;;;;15.23;7.60;;;16.30;99.90;;;;;;5042953;28;20048;-61
2023/10/09 09:07:23;;;;;;;21.77;7.85;;;16.30;99.90;;;;;;5083292;28;20102;-61
2023/10/09 09:09:57;;;;;;;19.17;8.35;;;16.30;99.90;;;;;;5053891;28;20095;-61
2023/10/09 09:12:24;;;;;;;15.70;7.50;;;16.50;99.90;;;;;;5039276;28;20051;-61
2023/10/09 09:14:50;;;;;;;20.25;8.27;;;16.40;99.90;;;;;;5065202;28;20048;-61
2023/10/09 09:17:23;;;;;;;17.13;7.22;;;16.40;99.90;;;;;;5047798;28;20125;-61
2023/10/09 09:19:49;;;;;;;17.17;7.20;;;16.50;99.90;;;;;;5041382;28;20083;-61
2023/10/09 09:22:19;;;;;;;19.02;7.25;;;16.40;99.90;;;;;;5054567;28;20116;-61
2023/10/09 09:25:03;;;;;;;16.85;8.02;;;16.60;99.90;;;;;;5054828;28;20040;-61
2023/10/09 09:27:55;;;;;;;18.70;7.70;;;16.50;99.90;;;;;;5054182;28;20048;-61
2023/10/09 09:30:35;;;;;;;20.75;7.53;;;16.60;99.90;;;;;;5053389;28;20075;-61
2023/10/09 09:33:26;;;;;;;15.77;7.43;;;16.50;99.90;;;;;;5054407;28;20049;-61
2023/10/09 09:36:04;;;;;;;22.60;7.95;;;16.60;99.90;;;;;;5054160;28;20045;-61
2023/10/09 09:38:47;;;;;;;14.82;7.15;;;16.50;99.90;;;;;;5052704;28;20510;-62
2023/10/09 09:41:27;;;;;;;18.50;7.28;;;16.60;99.90;;;;;;5037486;28;20044;-61
2023/10/09 09:44:00;;;;;;;14.70;7.22;;;16.70;99.90;;;;;;5054014;28;20045;-61
2023/10/09 09:46:34;;;;;;;14.50;5.75;;;16.60;99.90;;;;;;5065467;28;20048;-62
2023/10/09 09:49:01;;;;;;;;;;;16.50;99.90;;;;;;5055015;28;20036;-62
2023/10/09 09:51:29;;;;;;;15.07;6.20;;;16.70;99.90;;;;;;5052778;28;19921;-61
2023/10/09 09:53:55;;;;;;;19.17;6.82;;;16.70;99.90;;;;;;5053790;28;20037;-62
2023/10/09 09:56:25;;;;;;;18.50;7.32;;;16.80;99.90;;;;;;5062883;28;20040;-62
2023/10/09 09:58:56;;;;;;;17.08;7.20;;;16.70;99.90;;;;;;5078216;28;20502;-61
2023/10/09 10:01:41;;;;;;;17.90;6.65;;;16.80;99.90;;;;;;5050090;28;20048;-59
2023/10/09 10:04:13;;;;;;;;;;;16.60;99.90;;;;;;5026273;28;20520;-59
2023/10/09 10:06:43;;;;;;;17.42;6.75;;;16.80;99.90;;;;;;5064983;28;19981;-59
2023/10/09 10:09:09;;;;;;;20.50;7.97;;;16.70;99.90;;;;;;5066918;28;20079;-59
2023/10/09 10:11:45;;;;;;;17.88;7.10;;;16.80;99.90;;;;;;5050484;28;20044;-59
2023/10/09 10:14:22;;;;;;;16.88;7.03;;;16.80;99.90;;;;;;5053888;28;20032;-59
2023/10/09 10:17:21;;;;;;;20.30;6.63;;;16.60;99.90;;;;;;5049332;28;20123;-60
2023/10/09 10:20:44;;;;;;;18.33;7.40;;;16.80;99.90;;;;;;5019255;28;20045;-59
2023/10/09 10:22:51;;;;;;;12.55;6.40;;;16.80;99.90;;;;;;5043032;28;20382;-59
2023/10/09 10:25:32;;;;;;;15.75;6.32;;;16.70;99.90;;;;;;5050320;28;20127;-59
2023/10/09 10:28:38;;;;;;;19.63;7.32;;;16.90;99.90;;;;;;5049796;28;20497;-72
2023/10/09 10:31:07;;;;;;;;;;;16.90;99.90;;;;;;5034283;28;20080;-72
2023/10/09 10:33:58;;;;;;;16.73;8.25;;;16.90;99.90;;;;;;5049138;28;20308;-72
2023/10/09 10:36:28;;;;;;;24.17;8.73;;;16.70;99.90;;;;;;5053980;28;20547;-71
2023/10/09 10:39:11;;;;;;;16.70;8.00;;;16.70;99.90;;;;;;5050548;28;20044;-72
2023/10/09 10:41:50;;;;;;;17.42;7.22;;;16.80;99.90;;;;;;5049394;28;20127;-71
2023/10/09 10:44:38;;;;;;;16.05;7.10;;;16.90;99.90;;;;;;5068607;28;20052;-73
2023/10/09 10:47:24;;;;;;;15.43;7.60;;;16.90;99.90;;;;;;5060395;28;20424;-71
2023/10/09 10:50:11;;;;;;;14.60;6.25;;;16.90;99.90;;;;;;5059214;28;20458;-71
2023/10/09 10:52:44;;;;;;;12.73;5.53;;;16.80;99.90;;;;;;5059825;28;20044;-73
2023/10/09 10:58:13;;;;;;;13.93;5.90;;;16.90;99.90;;;;;;5030488;28;20061;-71
2023/10/09 11:03:35;;;;;;;19.67;5.77;;;16.90;99.90;;;;;;5066181;28;20052;-74
2023/10/09 11:06:13;;;;;;;14.45;5.22;;;16.80;99.90;;;;;;5059547;28;20048;-72
2023/10/09 11:08:53;;;;;;;9.88;5.05;;;16.80;99.90;;;;;;5050689;28;20103;-72
2023/10/09 11:11:20;;;;;;;11.90;4.82;;;16.90;99.90;;;;;;5049384;28;20041;-72
2023/10/09 11:13:54;;;;;;;16.17;4.60;;;17.00;99.90;;;;;;5049538;28;20036;-73
2023/10/09 11:16:41;;;;;;;11.57;4.70;;;16.90;99.90;;;;;;5060078;28;20054;-72
2023/10/09 11:19:13;;;;;;;12.75;4.18;;;17.00;99.90;;;;;;5049191;28;20059;-71
2023/10/09 11:21:43;;;;;;;11.50;4.55;;;16.90;99.90;;;;;;5056316;28;20044;-72
2023/10/09 11:24:24;;;;;;;13.00;4.40;;;16.90;99.90;;;;;;5048717;28;20455;-73
2023/10/09 11:26:55;;;;;;;9.48;3.60;;;16.90;99.90;;;;;;5051035;28;20075;-71
2023/10/09 11:29:31;;;;;;;10.95;3.65;;;16.90;99.90;;;;;;5049155;28;20048;-71
2023/10/09 11:32:05;;;;;;;7.80;4.10;;;16.90;99.90;;;;;;5033436;28;20040;-72
2023/10/09 11:34:37;;;;;;;13.70;3.70;;;16.90;99.90;;;;;;5047062;28;20098;-71
2023/10/09 11:37:15;;;;;;;13.20;3.22;;;16.90;99.90;;;;;;5048611;28;20045;-73
2023/10/09 11:39:51;;;;;;;7.20;3.03;;;17.10;99.90;;;;;;5049476;28;20045;-72
2023/10/09 11:42:36;;;;;;;10.32;3.95;;;17.10;99.90;;;;;;5082776;28;20052;-73
2023/10/09 11:45:19;;;;;;;;;;;17.10;99.90;;;;;;5049114;28;20544;-73
2023/10/09 11:47:58;;;;;;;11.73;3.00;;;17.20;99.90;;;;;;5049113;28;19917;-73
2023/10/09 11:50:43;;;;;;;9.85;3.40;;;17.20;99.90;;;;;;5039506;28;20110;-73
2023/10/09 11:53:33;;;;;;;13.43;3.22;;;17.20;99.90;;;;;;5049747;28;20052;-73
2023/10/09 11:55:59;;;;;;;10.43;3.08;;;17.30;99.90;;;;;;5050856;28;20125;-73
2023/10/09 11:58:26;;;;;;;15.05;3.30;;;17.40;99.90;;;;;;5048822;28;20545;-74
2023/10/09 12:00:56;;;;;;;10.10;3.20;;;17.30;99.90;;;;;;5049749;28;20037;-74
2023/10/09 12:03:29;;;;;;;14.20;3.53;;;17.30;99.90;;;;;;5048815;28;20055;-74
2023/10/09 12:06:04;;;;;;;9.23;3.10;;;17.20;99.90;;;;;;5050756;28;20044;-74
2023/10/09 12:08:30;;;;;;;12.10;3.33;;;17.20;99.90;;;;;;5049505;28;20041;-73
2023/10/09 12:10:56;;;;;;;11.25;4.22;;;17.10;99.90;;;;;;5052500;28;20032;-73
2023/10/09 12:13:23;;;;;;;10.50;2.75;;;17.00;99.90;;;;;;5050456;28;20159;-71
2023/10/09 12:15:52;;;;;;;13.85;3.80;;;17.00;99.90;;;;;;5050648;28;20040;-70
2023/10/09 12:18:20;;;;;;;15.25;3.75;;;16.90;99.90;;;;;;5052163;28;20390;-72
2023/10/09 12:20:52;;;;;;;10.50;3.67;;;16.90;99.90;;;;;;5050843;28;20040;-58
2023/10/09 12:23:19;;;;;;;8.90;3.30;;;17.00;99.90;;;;;;5050953;28;20053;-58
2023/10/09 12:25:48;;;;;;;9.32;3.15;;;16.90;99.90;;;;;;5055507;28;20043;-59
2023/10/09 12:28:14;;;;;;;13.57;4.13;;;17.00;99.90;;;;;;5067178;28;20044;-59
2023/10/09 12:30:41;;;;;;;10.48;3.30;;;17.00;99.90;;;;;;5070781;28;20501;-59
2023/10/09 12:33:08;;;;;;;7.22;3.10;;;17.10;99.90;;;;;;5070093;28;20049;-59
2023/10/09 12:35:41;;;;;;;11.65;4.05;;;17.10;99.90;;;;;;5053858;28;20081;-59
2023/10/09 12:38:12;;;;;;;5.60;2.90;;;17.00;99.90;;;;;;5069082;28;20052;-58
2023/10/09 12:40:40;;;;;;;8.02;3.42;;;17.00;99.90;;;;;;5052894;28;20124;-58
2023/10/09 12:43:15;;;;;;;9.68;2.97;;;17.00;99.90;;;;;;5071020;28;20048;-58
2023/10/09 12:45:45;;;;;;;6.30;3.03;;;17.00;99.90;;;;;;5072020;28;20273;-58
2023/10/09 12:48:10;;;;;;;9.68;3.40;;;17.10;99.90;;;;;;5069902;28;20098;-59
2023/10/09 12:50:44;;;;;;;11.35;3.05;;;17.00;99.90;;;;;;5070377;28;20048;-58
2023/10/09 12:53:11;;;;;;;10.30;3.83;;;17.10;99.90;;;;;;5071571;28;20037;-58
2023/10/09 12:55:43;;;;;;;8.43;3.38;;;17.10;99.90;;;;;;5071035;28;20043;-59
2023/10/09 12:58:14;;;;;;;7.93;3.85;;;17.20;99.90;;;;;;5070563;28;20040;-59
2023/10/09 13:00:44;;;;;;;10.85;4.07;;;17.20;99.90;;;;;;5071669;28;20042;-58
2023/10/09 13:03:21;;;;;;;9.15;4.13;;;17.20;99.90;;;;;;5071209;28;20068;-59
2023/10/09 13:05:58;;;;;;;9.43;3.90;;;17.30;99.90;;;;;;5070362;28;20041;-59
2023/10/09 13:08:31;;;;;;;6.95;3.80;;;17.40;99.90;;;;;;5069548;28;20088;-61
2023/10/09 13:11:04;;;;;;;8.07;4.70;;;17.40;99.90;;;;;;5070818;28;20385;-61
2023/10/09 13:16:25;;;;;;;16.73;4.15;;;17.40;99.90;;;;;;5069484;28;20554;-61
2023/10/09 13:18:56;;;;;;;7.30;3.63;;;17.50;99.90;;;;;;5071659;28;20453;-61
2023/10/09 13:21:34;;;;;;;9.55;3.50;;;17.50;99.90;;;;;;5070108;28;20041;-61
2023/10/09 13:24:02;;;;;;;8.48;3.30;;;17.60;99.90;;;;;;5053299;28;20082;-59
2023/10/09 13:26:30;;;;;;;8.25;2.95;;;17.70;99.90;;;;;;5069794;28;20053;-59
2023/10/09 13:28:57;;;;;;;7.25;3.72;;;17.60;99.90;;;;;;5071729;28;20029;-59
2023/10/09 13:31:28;;;;;;;6.82;3.75;;;17.70;99.90;;;;;;5070050;28;20082;-59
2023/10/09 13:33:55;;;;;;;8.50;2.88;;;17.70;99.90;;;;;;5070616;28;20041;-59
2023/10/09 13:36:27;;;;;;;10.48;3.20;;;17.70;99.90;;;;;;5069178;28;20092;-59
2023/10/09 13:39:52;;;;;;;6.10;2.60;;;17.70;99.90;;;;;;5070457;28;20050;-58
2023/10/09 13:42:01;;;;;;;10.40;3.00;;;17.60;99.90;;;;;;5061994;28;20045;-59
2023/10/09 13:44:26;;;;;;;7.35;2.97;;;17.60;99.90;;;;;;5052646;28;20044;-59
2023/10/09 13:46:56;;;;;;;10.60;3.90;;;17.50;99.90;;;;;;5053240;28;20128;-58
2023/10/09 13:49:29;;;;;;;9.25;3.50;;;17.50;99.90;;;;;;5052947;28;20041;-58
2023/10/09 13:51:56;;;;;;;9.02;2.67;;;17.50;99.90;;;;;;5072442;28;20084;-59
2023/10/09 13:54:39;;;;;;;8.70;2.92;;;17.30;99.90;;;;;;5074875;28;20464;-58
2023/10/09 13:57:07;;;;;;;10.85;2.75;;;17.30;99.90;;;;;;5073760;28;20055;-59
2023/10/09 13:59:42;;;;;;;7.05;3.22;;;17.20;99.90;;;;;;5056723;28;20066;-59
2023/10/09 14:02:16;;;;;;;6.43;2.40;;;17.20;99.90;;;;;;5073462;28;20044;-59
2023/10/09 14:04:43;;;;;;;7.45;2.65;;;17.20;99.90;;;;;;5055980;28;20032;-58
2023/10/09 14:07:09;;;;;;;9.60;2.53;;;17.10;99.90;;;;;;5074810;28;20042;-58
2023/10/09 14:09:39;;;;;;;7.20;2.53;;;17.10;99.90;;;;;;5063368;28;20525;-60
2023/10/09 14:12:06;;;;;;;11.70;3.28;;;17.10;99.90;;;;;;5048838;28;20367;-58
2023/10/09 14:14:38;;;;;;;9.77;3.17;;;17.10;99.90;;;;;;5051625;28;20118;-58
2023/10/09 14:17:13;;;;;;;7.20;2.38;;;17.00;99.90;;;;;;5039680;28;20485;-61
2023/10/09 14:19:50;;;;;;;6.70;3.20;;;17.00;99.90;;;;;;5049895;28;20033;-61
2023/10/09 14:22:26;;;;;;;7.70;2.90;;;17.00;99.90;;;;;;5050063;28;20044;-61
2023/10/09 14:24:56;;;;;;;8.25;2.75;;;17.00;99.90;;;;;;5050333;28;20451;-61
2023/10/09 14:27:34;;;;;;;9.02;2.83;;;17.00;99.90;;;;;;5049422;28;20120;-61
2023/10/09 14:30:01;;;;;;;7.90;2.95;;;17.00;99.90;;;;;;5050722;28;20077;-61
2023/10/09 14:32:33;;;;;;;6.82;2.78;;;17.00;99.90;;;;;;5049463;28;20459;-61
2023/10/09 14:35:02;;;;;;;6.55;3.45;;;17.00;99.90;;;;;;5050584;28;20051;-61
2023/10/09 14:37:28;;;;;;;7.35;3.05;;;17.00;99.90;;;;;;5050175;28;20543;-59
2023/10/09 14:39:56;;;;;;;7.47;3.28;;;17.00;99.90;;;;;;5047519;28;20482;-59
2023/10/09 14:42:24;;;;;;;8.50;2.92;;;17.00;99.90;;;;;;5051120;28;20049;-59
2023/10/09 14:44:50;;;;;;;8.05;3.20;;;17.00;99.90;;;;;;5036380;28;20230;-59
2023/10/09 14:47:16;;;;;;;7.13;2.65;;;17.00;99.90;;;;;;5058123;28;20511;-62
2023/10/09 14:49:46;;;;;;;11.43;3.40;;;17.00;99.90;;;;;;5040139;28;20053;-63
2023/10/09 14:52:16;;;;;;;10.65;3.75;;;17.00;99.90;;;;;;5050580;28;20576;-62
2023/10/09 14:54:44;;;;;;;9.48;3.35;;;17.10;99.90;;;;;;5054053;28;20083;-62
2023/10/09 14:57:11;;;;;;;8.88;3.75;;;17.00;99.90;;;;;;5055883;28;20053;-62
2023/10/09 14:59:38;;;;;;;7.13;3.20;;;17.10;99.90;;;;;;5050645;28;20049;-62
2023/10/09 15:02:05;;;;;;;10.55;3.20;;;17.10;99.90;;;;;;5029426;28;20044;-62
2023/10/09 15:04:31;;;;;;;11.25;3.10;;;17.10;99.90;;;;;;5029634;28;20254;-62
2023/10/09 15:06:57;;;;;;;7.30;2.50;;;17.10;99.90;;;;;;5030858;28;20049;-62
2023/10/09 15:09:23;;;;;;;10.25;2.97;;;17.00;99.90;;;;;;5041116;28;20367;-62
2023/10/09 15:11:52;;;;;;;9.93;3.05;;;17.00;99.90;;;;;;5065399;28;20048;-62
2023/10/09 15:14:21;;;;;;;7.03;2.13;;;17.00;99.90;;;;;;5048977;28;20045;-62
2023/10/09 15:16:47;;;;;;;8.02;2.88;;;17.00;99.90;;;;;;5048864;28;20114;-62
2023/10/09 15:19:14;;;;;;;6.32;2.33;;;17.00;99.90;;;;;;5052961;28;20483;-62
2023/10/09 15:21:46;;;;;;;8.52;3.10;;;16.90;99.90;;;;;;5061166;28;20045;-61
2023/10/09 15:24:17;;;;;;;9.13;2.67;;;16.90;99.90;;;;;;5049063;28;20067;-59
2023/10/09 15:26:44;;;;;;;8.48;3.00;;;16.90;99.90;;;;;;5066489;28;20045;-59
2023/10/09 15:29:10;;;;;;;7.43;2.53;;;16.80;99.90;;;;;;5058899;28;20431;-59
2023/10/09 15:31:36;;;;;;;14.13;3.15;;;16.80;99.90;;;;;;5047333;28;20041;-60
2023/10/09 15:34:02;;;;;;;15.55;4.28;;;16.80;99.90;;;;;;5050743;28;20040;-59
2023/10/09 15:36:31;;;;;;;10.25;2.95;;;16.80;99.90;;;;;;5048046;28;20150;-60
2023/10/09 15:38:59;;;;;;;10.02;3.15;;;16.80;99.90;;;;;;5032133;28;20143;-59
2023/10/09 15:41:32;;;;;;;9.18;3.22;;;16.70;99.90;;;;;;5047520;28;20052;-59